sensor_id;sensor_type;location;lat;lon;timestamp;P1;durP1;ratioP1;P2;durP2;ratioP2
6135;SDS011;24008;42.664;23.372;2023-07-20T00:00:05;5.93;;;2.80;;
6135;SDS011;24008;42.664;23.372;2023-07-20T00:02:33;11.23;;;4.10;;
6135;SDS011;24008;42.664;23.372;2023-07-20T00:05:00;10.90;;;3.22;;
6135;SDS011;24008;42.664;23.372;2023-07-20T00:07:29;8.88;;;3.60;;
6135;SDS011;24008;42.664;23.372;2023-07-20T00:09:55;8.93;;;2.92;;
6135;SDS011;24008;42.664;23.372;2023-07-20T00:12:22;7.70;;;3.15;;
6135;SDS011;24008;42.664;23.372;2023-07-20T00:14:49;9.10;;;3.00;;
6135;SDS011;24008;42.664;23.372;2023-07-20T00:17:19;9.65;;;3.03;;
6135;SDS011;24008;42.664;23.372;2023-07-20T00:19:46;7.40;;;2.90;;
6135;SDS011;24008;42.664;23.372;2023-07-20T00:22:12;9.60;;;3.20;;
6135;SDS011;24008;42.664;23.372;2023-07-20T00:24:41;8.38;;;3.35;;
6135;SDS011;24008;42.664;23.372;2023-07-20T00:27:08;10.38;;;3.47;;
6135;SDS011;24008;42.664;23.372;2023-07-20T00:29:34;7.85;;;3.20;;
6135;SDS011;24008;42.664;23.372;2023-07-20T00:32:01;9.98;;;3.17;;
6135;SDS011;24008;42.664;23.372;2023-07-20T00:34:30;8.95;;;2.95;;
6135;SDS011;24008;42.664;23.372;2023-07-20T00:36:56;9.57;;;3.35;;
6135;SDS011;24008;42.664;23.372;2023-07-20T00:39:23;6.95;;;3.10;;
6135;SDS011;24008;42.664;23.372;2023-07-20T00:41:51;10.68;;;3.65;;
6135;SDS011;24008;42.664;23.372;2023-07-20T00:44:18;10.40;;;3.30;;
6135;SDS011;24008;42.664;23.372;2023-07-20T00:46:44;10.20;;;3.22;;
6135;SDS011;24008;42.664;23.372;2023-07-20T00:49:11;11.52;;;3.17;;
6135;SDS011;24008;42.664;23.372;2023-07-20T00:51:38;7.38;;;2.92;;
6135;SDS011;24008;42.664;23.372;2023-07-20T00:54:05;8.57;;;3.03;;
6135;SDS011;24008;42.664;23.372;2023-07-20T00:56:33;14.50;;;3.45;;
6135;SDS011;24008;42.664;23.372;2023-07-20T00:59:01;10.93;;;3.70;;
6135;SDS011;24008;42.664;23.372;2023-07-20T01:01:28;8.68;;;3.47;;
6135;SDS011;24008;42.664;23.372;2023-07-20T01:03:55;6.50;;;2.92;;
6135;SDS011;24008;42.664;23.372;2023-07-20T01:06:24;10.85;;;3.08;;
6135;SDS011;24008;42.664;23.372;2023-07-20T01:09:01;6.18;;;3.58;;
6135;SDS011;24008;42.664;23.372;2023-07-20T01:11:36;6.65;;;3.00;;
6135;SDS011;24008;42.664;23.372;2023-07-20T01:14:10;8.05;;;3.15;;
6135;SDS011;24008;42.664;23.372;2023-07-20T01:16:38;9.60;;;3.28;;
6135;SDS011;24008;42.664;23.372;2023-07-20T01:19:05;10.18;;;3.22;;
6135;SDS011;24008;42.664;23.372;2023-07-20T01:21:34;7.75;;;3.53;;
6135;SDS011;24008;42.664;23.372;2023-07-20T01:27:21;10.82;;;3.38;;
6135;SDS011;24008;42.664;23.372;2023-07-20T01:30:07;7.55;;;2.92;;
6135;SDS011;24008;42.664;23.372;2023-07-20T01:32:43;8.30;;;3.33;;
6135;SDS011;24008;42.664;23.372;2023-07-20T01:35:13;10.05;;;4.00;;
6135;SDS011;24008;42.664;23.372;2023-07-20T01:37:42;10.85;;;3.97;;
6135;SDS011;24008;42.664;23.372;2023-07-20T01:40:11;8.52;;;3.10;;
6135;SDS011;24008;42.664;23.372;2023-07-20T01:42:43;8.05;;;3.58;;
6135;SDS011;24008;42.664;23.372;2023-07-20T01:45:10;7.30;;;4.15;;
6135;SDS011;24008;42.664;23.372;2023-07-20T01:47:37;11.13;;;4.13;;
6135;SDS011;24008;42.664;23.372;2023-07-20T01:50:06;11.30;;;4.28;;
6135;SDS011;24008;42.664;23.372;2023-07-20T01:52:33;8.38;;;3.45;;
6135;SDS011;24008;42.664;23.372;2023-07-20T01:55:00;8.68;;;3.80;;
6135;SDS011;24008;42.664;23.372;2023-07-20T01:57:26;7.93;;;3.65;;
6135;SDS011;24008;42.664;23.372;2023-07-20T01:59:53;8.50;;;3.50;;
6135;SDS011;24008;42.664;23.372;2023-07-20T02:02:20;7.35;;;3.53;;
6135;SDS011;24008;42.664;23.372;2023-07-20T02:04:46;11.13;;;3.88;;
6135;SDS011;24008;42.664;23.372;2023-07-20T02:07:14;10.07;;;4.18;;
6135;SDS011;24008;42.664;23.372;2023-07-20T02:09:41;8.60;;;3.60;;
6135;SDS011;24008;42.664;23.372;2023-07-20T02:12:08;14.55;;;4.22;;
6135;SDS011;24008;42.664;23.372;2023-07-20T02:14:35;10.30;;;3.97;;
6135;SDS011;24008;42.664;23.372;2023-07-20T02:17:02;10.18;;;4.13;;
6135;SDS011;24008;42.664;23.372;2023-07-20T02:19:29;11.63;;;4.18;;
6135;SDS011;24008;42.664;23.372;2023-07-20T02:21:56;10.23;;;3.72;;
6135;SDS011;24008;42.664;23.372;2023-07-20T02:24:24;12.45;;;4.10;;
6135;SDS011;24008;42.664;23.372;2023-07-20T02:26:51;12.07;;;3.72;;
6135;SDS011;24008;42.664;23.372;2023-07-20T02:29:18;12.52;;;4.32;;
6135;SDS011;24008;42.664;23.372;2023-07-20T02:31:45;8.73;;;4.00;;
6135;SDS011;24008;42.664;23.372;2023-07-20T02:34:11;7.10;;;4.03;;
6135;SDS011;24008;42.664;23.372;2023-07-20T02:36:38;7.82;;;4.00;;
6135;SDS011;24008;42.664;23.372;2023-07-20T02:39:07;7.53;;;3.93;;
6135;SDS011;24008;42.664;23.372;2023-07-20T02:41:35;10.52;;;4.10;;
6135;SDS011;24008;42.664;23.372;2023-07-20T02:44:02;11.02;;;4.07;;
6135;SDS011;24008;42.664;23.372;2023-07-20T02:46:29;7.65;;;3.75;;
6135;SDS011;24008;42.664;23.372;2023-07-20T02:48:56;9.52;;;4.28;;
6135;SDS011;24008;42.664;23.372;2023-07-20T02:51:22;9.02;;;4.30;;
6135;SDS011;24008;42.664;23.372;2023-07-20T02:53:49;8.63;;;4.00;;
6135;SDS011;24008;42.664;23.372;2023-07-20T02:56:16;13.00;;;4.47;;
6135;SDS011;24008;42.664;23.372;2023-07-20T02:58:44;9.48;;;4.25;;
6135;SDS011;24008;42.664;23.372;2023-07-20T03:01:11;9.13;;;3.83;;
6135;SDS011;24008;42.664;23.372;2023-07-20T03:03:39;10.73;;;4.20;;
6135;SDS011;24008;42.664;23.372;2023-07-20T03:06:06;9.57;;;4.00;;
6135;SDS011;24008;42.664;23.372;2023-07-20T03:08:33;11.77;;;4.33;;
6135;SDS011;24008;42.664;23.372;2023-07-20T03:11:01;8.38;;;3.90;;
6135;SDS011;24008;42.664;23.372;2023-07-20T03:13:27;11.07;;;4.20;;
6135;SDS011;24008;42.664;23.372;2023-07-20T03:15:56;10.32;;;4.25;;
6135;SDS011;24008;42.664;23.372;2023-07-20T03:18:23;13.07;;;4.53;;
6135;SDS011;24008;42.664;23.372;2023-07-20T03:20:50;9.73;;;3.80;;
6135;SDS011;24008;42.664;23.372;2023-07-20T03:23:17;10.20;;;4.30;;
6135;SDS011;24008;42.664;23.372;2023-07-20T03:25:43;9.53;;;4.00;;
6135;SDS011;24008;42.664;23.372;2023-07-20T03:28:19;8.13;;;4.43;;
6135;SDS011;24008;42.664;23.372;2023-07-20T03:30:46;10.20;;;4.18;;
6135;SDS011;24008;42.664;23.372;2023-07-20T03:33:20;12.30;;;7.13;;
6135;SDS011;24008;42.664;23.372;2023-07-20T03:35:47;19.88;;;12.30;;
6135;SDS011;24008;42.664;23.372;2023-07-20T03:38:13;11.23;;;6.63;;
6135;SDS011;24008;42.664;23.372;2023-07-20T03:40:48;22.20;;;12.23;;
6135;SDS011;24008;42.664;23.372;2023-07-20T03:43:15;16.90;;;5.55;;
6135;SDS011;24008;42.664;23.372;2023-07-20T03:45:42;15.83;;;7.37;;
6135;SDS011;24008;42.664;23.372;2023-07-20T03:48:09;19.35;;;11.45;;
6135;SDS011;24008;42.664;23.372;2023-07-20T03:50:37;16.63;;;9.35;;
6135;SDS011;24008;42.664;23.372;2023-07-20T03:53:04;16.50;;;7.43;;
6135;SDS011;24008;42.664;23.372;2023-07-20T03:55:31;11.75;;;5.65;;
6135;SDS011;24008;42.664;23.372;2023-07-20T03:57:57;10.00;;;5.00;;
6135;SDS011;24008;42.664;23.372;2023-07-20T04:00:24;11.02;;;4.80;;
6135;SDS011;24008;42.664;23.372;2023-07-20T04:02:51;11.50;;;4.90;;
6135;SDS011;24008;42.664;23.372;2023-07-20T04:05:18;17.90;;;6.07;;
6135;SDS011;24008;42.664;23.372;2023-07-20T04:07:46;10.93;;;5.38;;
6135;SDS011;24008;42.664;23.372;2023-07-20T04:10:13;12.50;;;4.35;;
6135;SDS011;24008;42.664;23.372;2023-07-20T04:12:39;11.70;;;4.30;;
6135;SDS011;24008;42.664;23.372;2023-07-20T04:15:07;14.65;;;4.50;;
6135;SDS011;24008;42.664;23.372;2023-07-20T04:17:34;10.30;;;4.57;;
6135;SDS011;24008;42.664;23.372;2023-07-20T04:20:01;13.23;;;4.82;;
6135;SDS011;24008;42.664;23.372;2023-07-20T04:22:29;9.70;;;4.78;;
6135;SDS011;24008;42.664;23.372;2023-07-20T04:24:57;15.75;;;4.07;;
6135;SDS011;24008;42.664;23.372;2023-07-20T04:27:24;9.13;;;4.18;;
6135;SDS011;24008;42.664;23.372;2023-07-20T04:29:51;12.15;;;4.35;;
6135;SDS011;24008;42.664;23.372;2023-07-20T04:32:18;8.50;;;4.10;;
6135;SDS011;24008;42.664;23.372;2023-07-20T04:34:44;10.95;;;4.38;;
6135;SDS011;24008;42.664;23.372;2023-07-20T04:37:11;10.85;;;5.00;;
6135;SDS011;24008;42.664;23.372;2023-07-20T04:39:38;13.93;;;4.43;;
6135;SDS011;24008;42.664;23.372;2023-07-20T04:42:06;11.68;;;4.68;;
6135;SDS011;24008;42.664;23.372;2023-07-20T04:44:33;6.93;;;3.72;;
6135;SDS011;24008;42.664;23.372;2023-07-20T04:47:00;8.65;;;3.72;;
6135;SDS011;24008;42.664;23.372;2023-07-20T04:49:27;10.20;;;4.05;;
6135;SDS011;24008;42.664;23.372;2023-07-20T04:51:54;8.15;;;4.43;;
6135;SDS011;24008;42.664;23.372;2023-07-20T04:54:21;11.57;;;4.28;;
6135;SDS011;24008;42.664;23.372;2023-07-20T04:56:47;12.65;;;4.47;;
6135;SDS011;24008;42.664;23.372;2023-07-20T04:59:16;8.77;;;4.32;;
6135;SDS011;24008;42.664;23.372;2023-07-20T05:01:42;10.15;;;4.30;;
6135;SDS011;24008;42.664;23.372;2023-07-20T05:04:09;16.95;;;4.60;;
6135;SDS011;24008;42.664;23.372;2023-07-20T05:06:36;11.00;;;4.00;;
6135;SDS011;24008;42.664;23.372;2023-07-20T05:09:03;14.63;;;5.88;;
6135;SDS011;24008;42.664;23.372;2023-07-20T05:11:32;15.27;;;5.50;;
6135;SDS011;24008;42.664;23.372;2023-07-20T05:13:59;13.73;;;5.57;;
6135;SDS011;24008;42.664;23.372;2023-07-20T05:16:28;14.27;;;5.85;;
6135;SDS011;24008;42.664;23.372;2023-07-20T05:18:54;12.30;;;5.07;;
6135;SDS011;24008;42.664;23.372;2023-07-20T05:21:23;13.38;;;5.13;;
6135;SDS011;24008;42.664;23.372;2023-07-20T05:23:49;7.55;;;4.30;;
6135;SDS011;24008;42.664;23.372;2023-07-20T05:26:16;16.25;;;5.43;;
6135;SDS011;24008;42.664;23.372;2023-07-20T05:28:43;11.85;;;4.90;;
6135;SDS011;24008;42.664;23.372;2023-07-20T05:31:09;11.70;;;5.10;;
6135;SDS011;24008;42.664;23.372;2023-07-20T05:33:38;10.93;;;4.68;;
6135;SDS011;24008;42.664;23.372;2023-07-20T05:36:04;10.57;;;5.53;;
6135;SDS011;24008;42.664;23.372;2023-07-20T05:38:31;12.35;;;5.15;;
6135;SDS011;24008;42.664;23.372;2023-07-20T05:40:59;8.85;;;4.78;;
6135;SDS011;24008;42.664;23.372;2023-07-20T05:43:27;9.30;;;4.50;;
6135;SDS011;24008;42.664;23.372;2023-07-20T05:45:54;12.65;;;4.80;;
6135;SDS011;24008;42.664;23.372;2023-07-20T05:48:21;12.60;;;4.60;;
6135;SDS011;24008;42.664;23.372;2023-07-20T05:50:49;10.85;;;4.65;;
6135;SDS011;24008;42.664;23.372;2023-07-20T05:53:16;12.38;;;4.15;;
6135;SDS011;24008;42.664;23.372;2023-07-20T05:55:42;9.82;;;4.90;;
6135;SDS011;24008;42.664;23.372;2023-07-20T05:58:09;14.52;;;4.90;;
6135;SDS011;24008;42.664;23.372;2023-07-20T06:00:36;11.50;;;5.07;;
6135;SDS011;24008;42.664;23.372;2023-07-20T06:03:03;13.07;;;4.57;;
6135;SDS011;24008;42.664;23.372;2023-07-20T06:05:51;8.82;;;3.97;;
6135;SDS011;24008;42.664;23.372;2023-07-20T06:08:18;9.52;;;3.78;;
6135;SDS011;24008;42.664;23.372;2023-07-20T06:10:49;11.82;;;4.15;;
6135;SDS011;24008;42.664;23.372;2023-07-20T06:13:17;11.85;;;4.80;;
6135;SDS011;24008;42.664;23.372;2023-07-20T06:15:43;12.00;;;4.32;;
6135;SDS011;24008;42.664;23.372;2023-07-20T06:18:10;12.88;;;4.03;;
6135;SDS011;24008;42.664;23.372;2023-07-20T06:20:37;13.95;;;4.72;;
6135;SDS011;24008;42.664;23.372;2023-07-20T06:23:05;10.68;;;4.38;;
6135;SDS011;24008;42.664;23.372;2023-07-20T06:25:32;13.30;;;4.70;;
6135;SDS011;24008;42.664;23.372;2023-07-20T06:27:58;11.05;;;4.28;;
6135;SDS011;24008;42.664;23.372;2023-07-20T06:30:25;8.15;;;4.22;;
6135;SDS011;24008;42.664;23.372;2023-07-20T06:32:52;11.02;;;4.47;;
6135;SDS011;24008;42.664;23.372;2023-07-20T06:35:18;11.32;;;4.30;;
6135;SDS011;24008;42.664;23.372;2023-07-20T06:37:45;10.57;;;4.57;;
6135;SDS011;24008;42.664;23.372;2023-07-20T06:40:14;8.32;;;4.03;;
6135;SDS011;24008;42.664;23.372;2023-07-20T06:42:40;13.07;;;5.35;;
6135;SDS011;24008;42.664;23.372;2023-07-20T06:45:07;14.52;;;5.13;;
6135;SDS011;24008;42.664;23.372;2023-07-20T06:47:35;14.30;;;5.95;;
6135;SDS011;24008;42.664;23.372;2023-07-20T06:50:04;13.32;;;5.93;;
6135;SDS011;24008;42.664;23.372;2023-07-20T06:52:32;12.15;;;5.43;;
6135;SDS011;24008;42.664;23.372;2023-07-20T06:54:59;14.95;;;5.65;;
6135;SDS011;24008;42.664;23.372;2023-07-20T06:57:27;15.13;;;5.97;;
6135;SDS011;24008;42.664;23.372;2023-07-20T06:59:53;16.05;;;6.30;;
6135;SDS011;24008;42.664;23.372;2023-07-20T07:02:20;14.15;;;5.95;;
6135;SDS011;24008;42.664;23.372;2023-07-20T07:04:47;16.25;;;5.57;;
6135;SDS011;24008;42.664;23.372;2023-07-20T07:07:13;14.45;;;5.65;;
6135;SDS011;24008;42.664;23.372;2023-07-20T07:09:40;13.68;;;5.78;;
6135;SDS011;24008;42.664;23.372;2023-07-20T07:12:08;14.13;;;5.70;;
6135;SDS011;24008;42.664;23.372;2023-07-20T07:14:36;14.15;;;6.15;;
6135;SDS011;24008;42.664;23.372;2023-07-20T07:17:03;14.27;;;6.38;;
6135;SDS011;24008;42.664;23.372;2023-07-20T07:19:30;12.35;;;5.95;;
6135;SDS011;24008;42.664;23.372;2023-07-20T07:21:57;13.55;;;6.13;;
6135;SDS011;24008;42.664;23.372;2023-07-20T07:24:24;16.98;;;5.90;;
6135;SDS011;24008;42.664;23.372;2023-07-20T07:26:50;17.92;;;6.30;;
6135;SDS011;24008;42.664;23.372;2023-07-20T07:29:17;13.55;;;5.60;;
6135;SDS011;24008;42.664;23.372;2023-07-20T07:31:45;13.00;;;5.47;;
6135;SDS011;24008;42.664;23.372;2023-07-20T07:34:12;11.65;;;5.90;;
6135;SDS011;24008;42.664;23.372;2023-07-20T07:36:39;14.57;;;5.55;;
6135;SDS011;24008;42.664;23.372;2023-07-20T07:39:05;14.98;;;5.55;;
6135;SDS011;24008;42.664;23.372;2023-07-20T07:41:32;13.20;;;5.53;;
6135;SDS011;24008;42.664;23.372;2023-07-20T07:43:59;17.30;;;5.65;;
6135;SDS011;24008;42.664;23.372;2023-07-20T07:46:26;14.57;;;5.57;;
6135;SDS011;24008;42.664;23.372;2023-07-20T07:48:54;16.55;;;5.75;;
6135;SDS011;24008;42.664;23.372;2023-07-20T07:51:21;16.00;;;5.72;;
6135;SDS011;24008;42.664;23.372;2023-07-20T07:53:52;16.77;;;5.57;;
6135;SDS011;24008;42.664;23.372;2023-07-20T07:56:19;14.43;;;5.63;;
6135;SDS011;24008;42.664;23.372;2023-07-20T07:58:47;16.13;;;5.40;;
6135;SDS011;24008;42.664;23.372;2023-07-20T08:01:14;12.52;;;5.45;;
6135;SDS011;24008;42.664;23.372;2023-07-20T08:03:41;13.57;;;5.05;;
6135;SDS011;24008;42.664;23.372;2023-07-20T08:06:12;11.85;;;5.13;;
6135;SDS011;24008;42.664;23.372;2023-07-20T08:08:39;10.82;;;5.32;;
6135;SDS011;24008;42.664;23.372;2023-07-20T08:11:05;13.82;;;6.13;;
6135;SDS011;24008;42.664;23.372;2023-07-20T08:13:32;14.27;;;5.95;;
6135;SDS011;24008;42.664;23.372;2023-07-20T08:15:59;14.90;;;6.30;;
6135;SDS011;24008;42.664;23.372;2023-07-20T08:18:27;10.63;;;5.90;;
6135;SDS011;24008;42.664;23.372;2023-07-20T08:21:04;11.63;;;5.00;;
6135;SDS011;24008;42.664;23.372;2023-07-20T08:23:36;18.50;;;5.65;;
6135;SDS011;24008;42.664;23.372;2023-07-20T08:26:03;15.75;;;4.88;;
6135;SDS011;24008;42.664;23.372;2023-07-20T08:28:30;11.68;;;5.47;;
6135;SDS011;24008;42.664;23.372;2023-07-20T08:30:57;10.88;;;4.85;;
6135;SDS011;24008;42.664;23.372;2023-07-20T08:33:23;13.82;;;4.97;;
6135;SDS011;24008;42.664;23.372;2023-07-20T08:35:50;13.07;;;4.88;;
6135;SDS011;24008;42.664;23.372;2023-07-20T08:38:17;13.38;;;4.45;;
6135;SDS011;24008;42.664;23.372;2023-07-20T08:40:45;11.18;;;4.20;;
6135;SDS011;24008;42.664;23.372;2023-07-20T08:43:13;9.07;;;4.10;;
6135;SDS011;24008;42.664;23.372;2023-07-20T08:45:41;7.65;;;3.15;;
6135;SDS011;24008;42.664;23.372;2023-07-20T08:48:10;10.38;;;3.20;;
6135;SDS011;24008;42.664;23.372;2023-07-20T08:50:38;10.55;;;3.22;;
6135;SDS011;24008;42.664;23.372;2023-07-20T08:53:06;12.00;;;3.72;;
6135;SDS011;24008;42.664;23.372;2023-07-20T08:55:34;10.30;;;3.63;;
6135;SDS011;24008;42.664;23.372;2023-07-20T08:58:03;11.13;;;3.20;;
6135;SDS011;24008;42.664;23.372;2023-07-20T09:00:34;12.57;;;3.33;;
6135;SDS011;24008;42.664;23.372;2023-07-20T09:03:02;9.50;;;3.05;;
6135;SDS011;24008;42.664;23.372;2023-07-20T09:05:29;12.32;;;3.95;;
6135;SDS011;24008;42.664;23.372;2023-07-20T09:07:56;8.73;;;3.90;;
6135;SDS011;24008;42.664;23.372;2023-07-20T09:10:23;10.95;;;3.63;;
6135;SDS011;24008;42.664;23.372;2023-07-20T09:12:50;12.52;;;3.72;;
6135;SDS011;24008;42.664;23.372;2023-07-20T09:15:19;9.45;;;3.47;;
6135;SDS011;24008;42.664;23.372;2023-07-20T09:17:46;10.60;;;2.92;;
6135;SDS011;24008;42.664;23.372;2023-07-20T09:20:14;12.57;;;3.78;;
6135;SDS011;24008;42.664;23.372;2023-07-20T09:22:42;12.10;;;3.72;;
6135;SDS011;24008;42.664;23.372;2023-07-20T09:25:11;8.90;;;3.22;;
6135;SDS011;24008;42.664;23.372;2023-07-20T09:27:39;12.63;;;3.53;;
6135;SDS011;24008;42.664;23.372;2023-07-20T09:30:07;13.77;;;4.40;;
6135;SDS011;24008;42.664;23.372;2023-07-20T09:32:40;10.75;;;3.90;;
6135;SDS011;24008;42.664;23.372;2023-07-20T09:35:12;8.77;;;3.15;;
6135;SDS011;24008;42.664;23.372;2023-07-20T09:37:40;9.85;;;3.25;;
6135;SDS011;24008;42.664;23.372;2023-07-20T09:40:08;9.77;;;3.47;;
6135;SDS011;24008;42.664;23.372;2023-07-20T09:42:36;7.50;;;3.08;;
6135;SDS011;24008;42.664;23.372;2023-07-20T09:45:06;12.85;;;3.45;;
6135;SDS011;24008;42.664;23.372;2023-07-20T09:47:35;11.07;;;3.35;;
6135;SDS011;24008;42.664;23.372;2023-07-20T09:50:04;9.50;;;3.28;;
6135;SDS011;24008;42.664;23.372;2023-07-20T09:52:36;10.48;;;3.17;;
6135;SDS011;24008;42.664;23.372;2023-07-20T09:55:04;13.88;;;3.35;;
6135;SDS011;24008;42.664;23.372;2023-07-20T09:57:32;12.68;;;3.72;;
6135;SDS011;24008;42.664;23.372;2023-07-20T09:59:59;8.77;;;2.70;;
6135;SDS011;24008;42.664;23.372;2023-07-20T10:02:30;12.18;;;3.08;;
6135;SDS011;24008;42.664;23.372;2023-07-20T10:05:01;7.95;;;2.40;;
6135;SDS011;24008;42.664;23.372;2023-07-20T10:07:30;6.15;;;2.70;;
6135;SDS011;24008;42.664;23.372;2023-07-20T10:09:59;7.15;;;2.45;;
6135;SDS011;24008;42.664;23.372;2023-07-20T10:12:30;9.30;;;3.10;;
6135;SDS011;24008;42.664;23.372;2023-07-20T10:14:59;8.90;;;3.50;;
6135;SDS011;24008;42.664;23.372;2023-07-20T10:17:35;7.57;;;2.72;;
6135;SDS011;24008;42.664;23.372;2023-07-20T10:20:25;10.68;;;3.03;;
6135;SDS011;24008;42.664;23.372;2023-07-20T10:22:53;7.93;;;2.70;;
6135;SDS011;24008;42.664;23.372;2023-07-20T10:25:22;9.68;;;2.75;;
6135;SDS011;24008;42.664;23.372;2023-07-20T10:27:49;11.10;;;2.95;;
6135;SDS011;24008;42.664;23.372;2023-07-20T10:30:17;7.72;;;2.50;;
6135;SDS011;24008;42.664;23.372;2023-07-20T10:32:45;6.18;;;2.90;;
6135;SDS011;24008;42.664;23.372;2023-07-20T10:35:13;8.95;;;3.30;;
6135;SDS011;24008;42.664;23.372;2023-07-20T10:37:49;7.53;;;2.63;;
6135;SDS011;24008;42.664;23.372;2023-07-20T10:40:24;8.82;;;2.90;;
6135;SDS011;24008;42.664;23.372;2023-07-20T10:42:56;8.02;;;2.70;;
6135;SDS011;24008;42.664;23.372;2023-07-20T10:45:32;8.45;;;2.88;;
6135;SDS011;24008;42.664;23.372;2023-07-20T10:48:02;8.55;;;2.67;;
6135;SDS011;24008;42.664;23.372;2023-07-20T10:50:30;8.07;;;2.58;;
6135;SDS011;24008;42.664;23.372;2023-07-20T10:53:11;7.05;;;2.72;;
6135;SDS011;24008;42.664;23.372;2023-07-20T10:55:40;9.80;;;3.00;;
6135;SDS011;24008;42.664;23.372;2023-07-20T10:58:09;9.73;;;3.60;;
6135;SDS011;24008;42.664;23.372;2023-07-20T11:00:37;11.93;;;3.50;;
6135;SDS011;24008;42.664;23.372;2023-07-20T11:03:28;8.68;;;3.50;;
6135;SDS011;24008;42.664;23.372;2023-07-20T11:05:59;11.57;;;3.17;;
6135;SDS011;24008;42.664;23.372;2023-07-20T11:08:41;11.88;;;2.90;;
6135;SDS011;24008;42.664;23.372;2023-07-20T11:11:21;9.25;;;3.17;;
6135;SDS011;24008;42.664;23.372;2023-07-20T11:13:55;10.40;;;2.83;;
6135;SDS011;24008;42.664;23.372;2023-07-20T11:16:36;8.20;;;3.08;;
6135;SDS011;24008;42.664;23.372;2023-07-20T11:19:13;8.32;;;3.20;;
6135;SDS011;24008;42.664;23.372;2023-07-20T11:21:42;9.38;;;2.83;;
6135;SDS011;24008;42.664;23.372;2023-07-20T11:24:11;9.32;;;3.15;;
6135;SDS011;24008;42.664;23.372;2023-07-20T11:26:42;9.88;;;3.70;;
6135;SDS011;24008;42.664;23.372;2023-07-20T11:29:10;8.43;;;3.40;;
6135;SDS011;24008;42.664;23.372;2023-07-20T11:31:37;11.27;;;3.92;;
6135;SDS011;24008;42.664;23.372;2023-07-20T11:34:05;9.40;;;4.28;;
6135;SDS011;24008;42.664;23.372;2023-07-20T11:36:33;18.02;;;5.35;;
6135;SDS011;24008;42.664;23.372;2023-07-20T11:39:00;9.88;;;4.53;;
6135;SDS011;24008;42.664;23.372;2023-07-20T11:41:31;8.85;;;4.72;;
6135;SDS011;24008;42.664;23.372;2023-07-20T11:43:59;10.90;;;4.65;;
6135;SDS011;24008;42.664;23.372;2023-07-20T11:46:27;9.48;;;4.68;;
6135;SDS011;24008;42.664;23.372;2023-07-20T11:48:57;10.75;;;4.93;;
6135;SDS011;24008;42.664;23.372;2023-07-20T11:51:26;10.23;;;5.22;;
6135;SDS011;24008;42.664;23.372;2023-07-20T11:53:54;7.43;;;4.85;;
6135;SDS011;24008;42.664;23.372;2023-07-20T11:56:22;8.68;;;4.72;;
6135;SDS011;24008;42.664;23.372;2023-07-20T11:58:50;6.70;;;4.45;;
6135;SDS011;24008;42.664;23.372;2023-07-20T12:01:21;10.20;;;5.20;;
6135;SDS011;24008;42.664;23.372;2023-07-20T12:03:49;10.32;;;4.88;;
6135;SDS011;24008;42.664;23.372;2023-07-20T12:06:16;10.52;;;5.60;;
6135;SDS011;24008;42.664;23.372;2023-07-20T12:08:43;13.95;;;5.45;;
6135;SDS011;24008;42.664;23.372;2023-07-20T12:11:10;10.90;;;5.53;;
6135;SDS011;24008;42.664;23.372;2023-07-20T12:13:38;15.77;;;5.93;;
6135;SDS011;24008;42.664;23.372;2023-07-20T12:16:13;9.85;;;5.05;;
6135;SDS011;24008;42.664;23.372;2023-07-20T12:18:42;8.57;;;4.38;;
6135;SDS011;24008;42.664;23.372;2023-07-20T12:21:09;9.13;;;5.28;;
6135;SDS011;24008;42.664;23.372;2023-07-20T12:23:40;11.55;;;4.50;;
6135;SDS011;24008;42.664;23.372;2023-07-20T12:26:08;9.27;;;4.40;;
6135;SDS011;24008;42.664;23.372;2023-07-20T12:28:36;8.15;;;4.50;;
6135;SDS011;24008;42.664;23.372;2023-07-20T12:31:06;10.68;;;4.35;;
6135;SDS011;24008;42.664;23.372;2023-07-20T12:33:34;10.77;;;4.43;;
6135;SDS011;24008;42.664;23.372;2023-07-20T12:36:01;7.30;;;3.58;;
6135;SDS011;24008;42.664;23.372;2023-07-20T12:38:29;10.18;;;3.95;;
6135;SDS011;24008;42.664;23.372;2023-07-20T12:40:57;7.65;;;3.80;;
6135;SDS011;24008;42.664;23.372;2023-07-20T12:43:25;10.05;;;3.30;;
6135;SDS011;24008;42.664;23.372;2023-07-20T12:45:53;6.22;;;3.20;;
6135;SDS011;24008;42.664;23.372;2023-07-20T12:48:21;7.35;;;3.75;;
6135;SDS011;24008;42.664;23.372;2023-07-20T12:50:49;13.25;;;3.70;;
6135;SDS011;24008;42.664;23.372;2023-07-20T12:53:16;7.50;;;3.55;;
6135;SDS011;24008;42.664;23.372;2023-07-20T12:55:43;8.05;;;3.88;;
6135;SDS011;24008;42.664;23.372;2023-07-20T12:58:11;7.07;;;2.90;;
6135;SDS011;24008;42.664;23.372;2023-07-20T13:00:38;9.98;;;3.75;;
6135;SDS011;24008;42.664;23.372;2023-07-20T13:03:05;8.23;;;3.50;;
6135;SDS011;24008;42.664;23.372;2023-07-20T13:05:33;9.45;;;3.45;;
6135;SDS011;24008;42.664;23.372;2023-07-20T13:08:02;9.05;;;3.10;;
6135;SDS011;24008;42.664;23.372;2023-07-20T13:10:30;8.98;;;3.90;;
6135;SDS011;24008;42.664;23.372;2023-07-20T13:12:57;10.90;;;3.65;;
6135;SDS011;24008;42.664;23.372;2023-07-20T13:15:29;9.60;;;3.58;;
6135;SDS011;24008;42.664;23.372;2023-07-20T13:17:57;8.02;;;3.40;;
6135;SDS011;24008;42.664;23.372;2023-07-20T13:20:25;8.45;;;3.58;;
6135;SDS011;24008;42.664;23.372;2023-07-20T13:22:53;7.00;;;3.13;;
6135;SDS011;24008;42.664;23.372;2023-07-20T13:25:21;11.82;;;3.72;;
6135;SDS011;24008;42.664;23.372;2023-07-20T13:27:48;7.82;;;3.45;;
6135;SDS011;24008;42.664;23.372;2023-07-20T13:30:14;12.55;;;3.67;;
6135;SDS011;24008;42.664;23.372;2023-07-20T13:32:42;14.68;;;3.30;;
6135;SDS011;24008;42.664;23.372;2023-07-20T13:35:09;10.93;;;2.90;;
6135;SDS011;24008;42.664;23.372;2023-07-20T13:37:37;19.80;;;3.20;;
6135;SDS011;24008;42.664;23.372;2023-07-20T13:40:06;11.82;;;3.53;;
6135;SDS011;24008;42.664;23.372;2023-07-20T13:42:38;7.47;;;3.35;;
6135;SDS011;24008;42.664;23.372;2023-07-20T13:45:05;11.85;;;3.30;;
6135;SDS011;24008;42.664;23.372;2023-07-20T13:47:33;12.45;;;3.33;;
6135;SDS011;24008;42.664;23.372;2023-07-20T13:49:59;7.28;;;3.28;;
6135;SDS011;24008;42.664;23.372;2023-07-20T13:52:27;6.85;;;2.75;;
6135;SDS011;24008;42.664;23.372;2023-07-20T13:54:54;8.10;;;3.03;;
6135;SDS011;24008;42.664;23.372;2023-07-20T13:57:23;8.95;;;3.08;;
6135;SDS011;24008;42.664;23.372;2023-07-20T13:59:51;14.95;;;3.50;;
6135;SDS011;24008;42.664;23.372;2023-07-20T14:02:18;9.55;;;3.47;;
6135;SDS011;24008;42.664;23.372;2023-07-20T14:04:44;13.55;;;2.92;;
6135;SDS011;24008;42.664;23.372;2023-07-20T14:07:11;10.05;;;3.17;;
6135;SDS011;24008;42.664;23.372;2023-07-20T14:09:38;12.25;;;3.00;;
6135;SDS011;24008;42.664;23.372;2023-07-20T14:12:05;15.57;;;3.00;;
6135;SDS011;24008;42.664;23.372;2023-07-20T14:14:33;11.50;;;3.03;;
6135;SDS011;24008;42.664;23.372;2023-07-20T14:17:01;17.20;;;3.22;;
6135;SDS011;24008;42.664;23.372;2023-07-20T14:19:28;11.50;;;3.67;;
6135;SDS011;24008;42.664;23.372;2023-07-20T14:21:55;9.90;;;3.03;;
6135;SDS011;24008;42.664;23.372;2023-07-20T14:24:24;15.70;;;3.88;;
6135;SDS011;24008;42.664;23.372;2023-07-20T14:26:50;12.55;;;3.42;;
6135;SDS011;24008;42.664;23.372;2023-07-20T14:29:17;9.20;;;2.70;;
6135;SDS011;24008;42.664;23.372;2023-07-20T14:31:44;9.55;;;2.80;;
6135;SDS011;24008;42.664;23.372;2023-07-20T14:34:15;8.80;;;3.05;;
6135;SDS011;24008;42.664;23.372;2023-07-20T14:36:44;10.68;;;2.80;;
6135;SDS011;24008;42.664;23.372;2023-07-20T14:39:11;12.13;;;2.75;;
6135;SDS011;24008;42.664;23.372;2023-07-20T14:41:38;11.40;;;3.47;;
6135;SDS011;24008;42.664;23.372;2023-07-20T14:44:05;9.77;;;2.45;;
6135;SDS011;24008;42.664;23.372;2023-07-20T14:46:32;7.57;;;2.95;;
6135;SDS011;24008;42.664;23.372;2023-07-20T14:48:58;10.45;;;3.42;;